Feldkirchen, Austria
Current Conditions -  °F | °C
As of 5:50 AM on Wednesday 28 Jan 2015 (Local Time) from LOWK Reporting Station
Clear Clear  
Wind Chill: 15°   Ceiling: Unl
Heat Index: 21°   Visibility: 6mi
Dew Point: 19°   Wind: 5mph
Humidity: 93%   Direction: 290°WNW
Pressure: 30.06"   Gusts: NA
Location:  46.73°N, 14.08°E
Report Text: LOWK 280350Z 29004KT CAVOK M06/M07 Q1018 NOSIG
Loading
Personal Weather Stations






























Interactive Weather Map New forecast layout! Learn more

10-Day Weather Forecast

Advertisements
Track Severe Weather on mobile